Time;durP1;ratioP1;P1;durP2;ratioP2;P2;SDS_P1;SDS_P2;PMS_P1;PMS_P2;Temp;Humidity;BMP_temperature;BMP_pressure;BME280_temperature;BME280_humidity;BME280_pressure;Samples;Min_cycle;Max_cycle;Signal;HPM_P1;HPM_P2
2023/07/21 00:01:16;;;;;;;1.92;1.55;;;19.60;99.20;;;;;;5046638;28;20174;-73
2023/07/21 00:03:43;;;;;;;2.42;1.50;;;19.50;99.60;;;;;;5014162;28;20174;-73
2023/07/21 00:06:17;;;;;;;1.92;1.23;;;19.60;99.50;;;;;;5032439;28;20201;-71
2023/07/21 00:08:43;;;;;;;1.75;1.40;;;19.50;99.50;;;;;;5034005;28;20182;-74
2023/07/21 00:11:09;;;;;;;2.33;1.70;;;19.50;99.60;;;;;;5033410;28;20185;-74
2023/07/21 00:13:35;;;;;;;2.25;1.60;;;19.50;99.80;;;;;;5033162;28;20181;-69
2023/07/21 00:16:07;;;;;;;2.05;1.65;;;19.50;99.80;;;;;;5033412;28;20202;-74
2023/07/21 00:18:33;;;;;;;2.72;1.42;;;19.50;99.90;;;;;;5030713;28;20206;-72
2023/07/21 00:21:00;;;;;;;1.73;1.45;;;19.50;99.90;;;;;;5033433;28;20174;-71
2023/07/21 00:23:27;;;;;;;2.15;1.50;;;19.50;99.90;;;;;;5033503;28;20264;-73
2023/07/21 00:25:52;;;;;;;1.67;1.50;;;19.50;99.90;;;;;;5051611;28;20212;-74
2023/07/21 00:28:20;;;;;;;2.15;1.40;;;19.50;99.90;;;;;;5054568;28;20181;-72
2023/07/21 00:30:48;;;;;;;1.50;1.33;;;19.50;99.90;;;;;;5037126;28;20253;-72
2023/07/21 00:33:17;;;;;;;2.15;1.70;;;19.40;99.90;;;;;;5036995;28;20460;-74
2023/07/21 00:35:45;;;;;;;2.17;1.80;;;19.40;99.90;;;;;;5037034;28;20232;-74
2023/07/21 00:38:11;;;;;;;2.42;1.63;;;19.40;99.90;;;;;;5036980;28;20178;-72
2023/07/21 00:40:41;;;;;;;1.98;1.77;;;19.40;99.90;;;;;;5036660;28;20213;-73
2023/07/21 00:43:09;;;;;;;2.63;2.03;;;19.30;99.90;;;;;;5036828;28;20249;-68
2023/07/21 00:45:39;;;;;;;3.50;2.20;;;19.30;99.90;;;;;;5034545;28;20190;-73
2023/07/21 00:48:08;;;;;;;2.55;2.03;;;19.30;99.90;;;;;;5083873;22;20241;-74
2023/07/21 00:50:46;;;;;;;2.70;1.77;;;19.30;99.90;;;;;;5036462;28;20220;-73
2023/07/21 00:53:14;;;;;;;3.25;1.60;;;19.30;99.90;;;;;;5035703;28;20189;-74
2023/07/21 00:55:46;;;;;;;2.67;1.70;;;19.20;99.90;;;;;;5027953;28;20202;-67
2023/07/21 00:58:11;;;;;;;2.20;1.60;;;19.20;99.90;;;;;;5034911;28;20177;-74
2023/07/21 01:00:40;;;;;;;2.10;1.40;;;19.20;99.90;;;;;;5037820;28;20258;-73
2023/07/21 01:03:08;;;;;;;2.40;1.50;;;19.10;99.90;;;;;;5036170;28;20178;-71
2023/07/21 01:05:38;;;;;;;1.88;1.52;;;19.10;99.90;;;;;;5026356;28;20181;-74
2023/07/21 01:08:04;;;;;;;2.80;1.95;;;19.10;99.90;;;;;;5035743;28;20205;-74
2023/07/21 01:10:33;;;;;;;2.03;1.83;;;19.10;99.90;;;;;;5036410;28;20177;-72
2023/07/21 01:13:00;;;;;;;2.03;1.80;;;19.10;99.90;;;;;;5036058;28;20189;-72
2023/07/21 01:15:29;;;;;;;2.35;1.80;;;19.10;99.90;;;;;;5032410;28;20210;-72
2023/07/21 01:17:56;;;;;;;2.25;2.05;;;19.10;99.90;;;;;;5016686;28;20175;-72
2023/07/21 01:20:24;;;;;;;2.70;1.85;;;19.10;99.90;;;;;;5045124;28;20170;-71
2023/07/21 01:23:00;;;;;;;2.20;1.83;;;19.10;99.90;;;;;;5035500;28;20289;-73
2023/07/21 01:25:28;;;;;;;2.88;1.98;;;19.10;99.90;;;;;;5033855;28;20221;-71
2023/07/21 01:27:55;;;;;;;2.08;1.80;;;19.10;99.90;;;;;;5043811;28;20178;-72
2023/07/21 01:30:21;;;;;;;2.65;2.28;;;19.10;99.90;;;;;;5052945;28;20174;-71
2023/07/21 01:32:50;;;;;;;3.08;2.10;;;19.10;99.90;;;;;;5045294;28;20173;-71
2023/07/21 01:35:18;;;;;;;2.38;2.00;;;19.10;99.90;;;;;;5051580;28;20197;-72
2023/07/21 01:37:49;;;;;;;2.75;2.20;;;19.10;99.90;;;;;;5035116;28;20170;-71
2023/07/21 01:40:18;;;;;;;2.65;2.25;;;19.10;99.90;;;;;;5021683;28;20186;-73
2023/07/21 01:42:48;;;;;;;2.38;2.05;;;19.20;99.90;;;;;;5016022;28;20201;-70
2023/07/21 01:45:14;;;;;;;2.65;2.20;;;19.10;99.90;;;;;;5035411;28;20181;-73
2023/07/21 01:47:40;;;;;;;2.15;1.90;;;19.10;99.90;;;;;;5035242;28;20243;-64
2023/07/21 01:50:13;;;;;;;2.90;2.17;;;19.10;99.90;;;;;;5034763;28;20201;-71
2023/07/21 01:52:39;;;;;;;4.55;2.22;;;19.10;99.90;;;;;;5031461;28;20184;-73
2023/07/21 01:55:06;;;;;;;3.75;2.67;;;19.10;99.90;;;;;;5034806;28;20252;-71
2023/07/21 01:57:36;;;;;;;2.75;2.13;;;19.10;99.90;;;;;;5031704;28;20194;-71
2023/07/21 02:00:04;;;;;;;2.50;2.22;;;19.10;99.90;;;;;;5035498;28;20213;-67
2023/07/21 02:02:33;;;;;;;2.28;1.73;;;19.00;99.90;;;;;;5034480;28;20182;-70
2023/07/21 02:05:01;;;;;;;2.70;2.28;;;19.00;99.90;;;;;;5035095;28;20190;-73
2023/07/21 02:07:27;;;;;;;2.65;2.28;;;19.00;99.90;;;;;;5032055;28;20188;-73
2023/07/21 02:09:53;;;;;;;4.57;2.67;;;19.00;99.90;;;;;;5038655;28;20170;-73
2023/07/21 02:12:19;;;;;;;2.90;2.40;;;19.00;99.90;;;;;;5033907;28;20236;-71
2023/07/21 02:14:47;;;;;;;2.67;2.10;;;19.00;99.90;;;;;;5019235;28;20178;-74
2023/07/21 02:17:12;;;;;;;3.63;2.67;;;19.00;99.90;;;;;;5035099;28;20265;-69
2023/07/21 02:19:40;;;;;;;2.65;2.45;;;19.00;99.90;;;;;;5034905;28;20336;-72
2023/07/21 02:22:06;;;;;;;4.32;2.30;;;19.00;99.90;;;;;;5031648;28;20273;-69
2023/07/21 02:24:34;;;;;;;3.63;2.13;;;19.00;99.90;;;;;;5034720;28;20253;-74
2023/07/21 02:27:00;;;;;;;2.45;2.17;;;19.00;99.90;;;;;;5031959;28;20182;-74
2023/07/21 02:29:26;;;;;;;2.30;2.00;;;19.00;99.90;;;;;;5033381;28;20201;-73
2023/07/21 02:31:51;;;;;;;2.28;2.08;;;19.00;99.90;;;;;;5034888;28;20236;-74
2023/07/21 02:34:19;;;;;;;2.30;2.10;;;19.00;99.90;;;;;;5020626;28;20203;-74
2023/07/21 02:36:45;;;;;;;2.35;2.10;;;19.00;99.90;;;;;;5015402;28;20194;-75
2023/07/21 02:39:11;;;;;;;3.03;2.28;;;19.00;99.90;;;;;;5034729;28;20231;-74
2023/07/21 02:41:36;;;;;;;2.40;2.20;;;19.10;99.90;;;;;;5035150;28;20186;-74
2023/07/21 02:44:04;;;;;;;2.38;2.13;;;19.00;99.90;;;;;;5034607;28;20182;-74
2023/07/21 02:46:30;;;;;;;2.25;2.05;;;19.10;99.90;;;;;;5040016;28;20252;-73
2023/07/21 02:48:55;;;;;;;2.80;2.10;;;19.10;99.90;;;;;;5033385;28;20233;-75
2023/07/21 02:51:21;;;;;;;2.20;1.83;;;19.10;99.90;;;;;;5040830;28;20173;-74
2023/07/21 02:53:47;;;;;;;3.25;1.65;;;19.10;99.90;;;;;;5046403;28;20203;-72
2023/07/21 02:56:14;;;;;;;1.83;1.45;;;19.10;99.90;;;;;;5051250;28;20292;-74
2023/07/21 02:58:40;;;;;;;2.88;1.70;;;19.10;99.90;;;;;;5040267;28;20178;-74
2023/07/21 03:01:06;;;;;;;1.92;1.65;;;19.10;99.90;;;;;;5033448;28;20201;-72
2023/07/21 03:03:32;;;;;;;2.15;1.95;;;19.10;99.90;;;;;;5031797;28;20216;-74
2023/07/21 03:06:00;;;;;;;3.08;1.90;;;19.10;99.90;;;;;;5033850;28;20188;-72
2023/07/21 03:08:29;;;;;;;2.10;1.90;;;19.10;99.90;;;;;;5033466;28;20288;-74
2023/07/21 03:10:58;;;;;;;2.38;1.98;;;19.10;99.90;;;;;;5030594;28;20186;-74
2023/07/21 03:13:24;;;;;;;2.28;2.00;;;19.10;99.90;;;;;;5022948;28;20209;-73
2023/07/21 03:15:51;;;;;;;2.45;2.05;;;19.10;99.90;;;;;;5033872;28;20224;-74
2023/07/21 03:18:17;;;;;;;3.22;2.92;;;19.10;99.90;;;;;;5033221;28;20211;-71
2023/07/21 03:20:46;;;;;;;3.42;2.97;;;19.10;99.90;;;;;;5032746;28;20177;-72
2023/07/21 03:23:14;;;;;;;4.22;3.08;;;19.10;99.90;;;;;;5026652;28;20173;-72
2023/07/21 03:25:43;;;;;;;4.88;3.30;;;19.00;99.90;;;;;;5025660;28;20190;-71
2023/07/21 03:28:16;;;;;;;4.70;3.22;;;19.00;99.90;;;;;;5033465;28;20185;-73
2023/07/21 03:30:43;;;;;;;3.65;3.30;;;18.90;99.90;;;;;;5048046;28;20174;-61
2023/07/21 03:33:11;;;;;;;3.40;3.10;;;18.80;99.90;;;;;;5030092;28;20178;-62
2023/07/21 03:35:39;;;;;;;4.07;3.67;;;18.70;99.90;;;;;;5031400;28;20198;-61
2023/07/21 03:38:07;;;;;;;5.07;4.15;;;18.70;99.90;;;;;;5032852;28;20186;-61
2023/07/21 03:40:35;;;;;;;3.92;3.53;;;18.50;99.90;;;;;;5035656;28;20264;-61
2023/07/21 03:43:00;;;;;;;6.05;3.60;;;18.50;99.90;;;;;;5024957;28;20279;-61
2023/07/21 03:45:26;;;;;;;3.63;3.13;;;18.40;99.90;;;;;;5033379;28;20236;-61
2023/07/21 03:47:54;;;;;;;3.72;3.22;;;18.40;99.90;;;;;;5018013;28;20205;-62
2023/07/21 03:50:23;;;;;;;3.42;3.13;;;18.30;99.90;;;;;;5044069;28;20184;-58
2023/07/21 03:52:51;;;;;;;3.70;3.00;;;18.30;99.90;;;;;;5034491;28;20178;-61
2023/07/21 03:55:17;;;;;;;3.55;3.15;;;18.30;99.90;;;;;;5029449;28;20282;-61
2023/07/21 03:57:43;;;;;;;5.57;3.25;;;18.30;99.90;;;;;;5020201;28;20270;-61
2023/07/21 04:00:11;;;;;;;3.78;3.38;;;18.30;99.90;;;;;;5031147;28;20170;-63
2023/07/21 04:02:39;;;;;;;4.00;3.35;;;18.30;99.90;;;;;;5026005;28;20209;-64
2023/07/21 04:05:05;;;;;;;4.15;3.50;;;18.20;99.90;;;;;;5036881;28;20240;-59
2023/07/21 04:07:31;;;;;;;4.05;3.55;;;18.20;99.90;;;;;;5041932;28;20193;-62
2023/07/21 04:09:59;;;;;;;3.90;3.30;;;18.20;99.90;;;;;;5037295;28;20193;-63
2023/07/21 04:12:28;;;;;;;4.70;3.70;;;18.20;99.90;;;;;;5036805;28;20244;-63
2023/07/21 04:14:56;;;;;;;3.97;3.55;;;18.20;99.90;;;;;;5028015;28;20199;-61
2023/07/21 04:17:24;;;;;;;5.40;3.80;;;18.30;99.90;;;;;;5035829;28;20174;-61
2023/07/21 04:19:52;;;;;;;4.72;3.75;;;18.20;99.90;;;;;;5023606;28;20719;-61
2023/07/21 04:22:20;;;;;;;5.28;3.80;;;18.30;99.90;;;;;;5017697;28;20167;-56
2023/07/21 04:24:46;;;;;;;4.75;3.92;;;18.30;99.90;;;;;;5036673;28;20216;-60
2023/07/21 04:27:16;;;;;;;6.35;3.65;;;18.30;99.90;;;;;;5036770;28;20222;-61
2023/07/21 04:29:44;;;;;;;3.92;3.22;;;18.30;99.90;;;;;;5036903;28;20198;-62
2023/07/21 04:32:09;;;;;;;3.90;3.42;;;18.30;99.90;;;;;;5036967;28;20204;-59
2023/07/21 04:34:35;;;;;;;3.50;3.17;;;18.30;99.90;;;;;;5033467;28;20241;-62
2023/07/21 04:37:02;;;;;;;3.67;3.17;;;18.30;99.90;;;;;;5035193;28;20171;-61
2023/07/21 04:39:27;;;;;;;4.28;3.47;;;18.30;99.90;;;;;;5037282;28;20170;-60
2023/07/21 04:41:55;;;;;;;4.28;3.88;;;18.30;99.90;;;;;;5036616;28;20192;-61
2023/07/21 04:44:23;;;;;;;3.90;3.25;;;18.30;99.90;;;;;;5037131;28;20179;-62
2023/07/21 04:46:49;;;;;;;3.42;3.13;;;18.30;99.90;;;;;;5048638;28;20181;-61
2023/07/21 04:49:17;;;;;;;4.03;2.90;;;18.30;99.90;;;;;;5056444;28;20195;-62
2023/07/21 04:51:45;;;;;;;3.50;3.20;;;18.30;99.90;;;;;;5036632;28;20250;-61
2023/07/21 04:54:11;;;;;;;3.85;3.10;;;18.30;99.90;;;;;;5033237;28;20206;-59
2023/07/21 04:56:37;;;;;;;4.57;3.30;;;18.30;99.90;;;;;;5027905;28;20193;-61
2023/07/21 04:59:03;;;;;;;2.95;2.72;;;18.30;99.90;;;;;;5036181;28;20221;-61
2023/07/21 05:01:31;;;;;;;3.58;3.15;;;18.30;99.90;;;;;;5032470;28;20226;-64
2023/07/21 05:03:58;;;;;;;3.05;2.70;;;18.30;99.90;;;;;;5016949;28;20166;-63
2023/07/21 05:06:23;;;;;;;4.18;2.80;;;18.30;99.90;;;;;;5031097;28;20228;-63
2023/07/21 05:08:49;;;;;;;2.80;2.60;;;18.30;99.90;;;;;;5036130;28;20198;-64
2023/07/21 05:11:19;;;;;;;2.88;2.33;;;18.30;99.90;;;;;;5031507;28;20222;-61
2023/07/21 05:13:45;;;;;;;3.00;2.33;;;18.30;99.90;;;;;;5023213;28;20201;-63
2023/07/21 05:16:11;;;;;;;2.63;2.30;;;18.30;99.90;;;;;;5032295;28;20215;-62
2023/07/21 05:18:37;;;;;;;2.50;2.13;;;18.30;99.90;;;;;;5032257;28;20175;-63
2023/07/21 05:21:03;;;;;;;7.13;6.18;;;18.40;99.90;;;;;;5017146;28;20178;-63
2023/07/21 05:23:29;;;;;;;4.00;3.60;;;18.30;99.90;;;;;;5028902;28;20268;-63
2023/07/21 05:26:00;;;;;;;4.35;2.90;;;18.40;99.90;;;;;;5017891;28;20189;-63
2023/07/21 05:28:26;;;;;;;3.25;2.92;;;18.50;99.90;;;;;;5032666;28;20174;-61
2023/07/21 05:30:54;;;;;;;2.78;2.45;;;18.50;99.90;;;;;;5034803;28;20186;-61
2023/07/21 05:33:22;;;;;;;2.88;2.58;;;18.60;99.90;;;;;;5033123;28;20193;-62
2023/07/21 05:35:48;;;;;;;2.47;2.10;;;18.70;99.90;;;;;;5025639;28;20252;-61
2023/07/21 05:38:13;;;;;;;3.70;2.72;;;18.80;99.90;;;;;;5033919;28;20174;-61
2023/07/21 05:40:41;;;;;;;2.85;2.20;;;18.80;99.90;;;;;;5031729;28;20174;-61
2023/07/21 05:43:11;;;;;;;2.97;2.10;;;18.80;99.90;;;;;;5015889;28;20175;-63
2023/07/21 05:45:38;;;;;;;2.30;1.77;;;18.90;99.90;;;;;;5022536;28;20228;-63
2023/07/21 05:48:04;;;;;;;2.40;1.67;;;18.90;99.90;;;;;;5032561;28;20182;-63
2023/07/21 05:50:33;;;;;;;2.25;2.05;;;19.00;99.90;;;;;;5035819;28;20243;-63
2023/07/21 05:53:01;;;;;;;3.45;1.80;;;19.00;99.90;;;;;;5035148;28;20188;-63
2023/07/21 05:55:27;;;;;;;2.22;1.70;;;19.00;99.90;;;;;;5032090;28;20203;-63
2023/07/21 05:57:56;;;;;;;2.15;1.70;;;19.10;99.90;;;;;;5032754;28;20178;-63
2023/07/21 06:00:21;;;;;;;1.95;1.60;;;19.10;99.90;;;;;;5033060;28;20177;-63
2023/07/21 06:02:47;;;;;;;1.85;1.63;;;19.10;99.90;;;;;;5030661;28;20180;-61
2023/07/21 06:05:14;;;;;;;2.50;1.60;;;19.20;99.90;;;;;;5019781;28;20206;-64
2023/07/21 06:07:44;;;;;;;2.10;1.50;;;19.20;99.90;;;;;;5033634;28;20521;-62
2023/07/21 06:10:14;;;;;;;2.25;1.60;;;19.20;99.90;;;;;;5040229;28;20432;-63
2023/07/21 06:12:40;;;;;;;3.05;1.60;;;19.20;99.90;;;;;;5034654;28;20343;-62
2023/07/21 06:15:07;;;;;;;2.03;1.52;;;19.30;99.90;;;;;;5035230;28;20288;-62
2023/07/21 06:17:34;;;;;;;2.47;1.50;;;19.30;99.90;;;;;;5034900;28;20190;-60
2023/07/21 06:20:00;;;;;;;3.20;1.92;;;19.30;99.90;;;;;;5034838;28;20193;-62
2023/07/21 06:22:26;;;;;;;3.50;1.80;;;19.40;99.90;;;;;;5030958;28;20193;-62
2023/07/21 06:24:52;;;;;;;2.30;2.10;;;19.40;99.90;;;;;;5035265;28;20170;-62
2023/07/21 06:27:18;;;;;;;2.10;1.90;;;19.40;99.90;;;;;;5034956;28;20194;-61
2023/07/21 06:29:44;;;;;;;2.75;1.73;;;19.40;99.90;;;;;;5031378;28;20179;-63
2023/07/21 06:32:12;;;;;;;2.08;1.67;;;19.50;99.90;;;;;;5028402;28;20278;-61
2023/07/21 06:34:39;;;;;;;2.85;1.70;;;19.50;99.90;;;;;;5033094;28;20186;-63
2023/07/21 06:37:05;;;;;;;2.80;2.00;;;19.50;99.90;;;;;;5035104;28;20178;-62
2023/07/21 06:39:36;;;;;;;2.00;1.80;;;19.50;99.90;;;;;;5028131;28;20519;-62
2023/07/21 06:42:01;;;;;;;3.38;2.58;;;19.60;99.90;;;;;;5034958;28;20285;-62
2023/07/21 06:44:27;;;;;;;3.08;2.50;;;19.60;99.90;;;;;;5034792;28;20197;-62
2023/07/21 06:46:52;;;;;;;3.55;3.15;;;19.60;99.90;;;;;;5034555;28;20184;-62
2023/07/21 06:49:18;;;;;;;4.30;3.33;;;19.60;99.90;;;;;;5034518;28;20260;-62
2023/07/21 06:51:46;;;;;;;4.35;3.50;;;19.60;99.90;;;;;;5034860;28;20189;-63
2023/07/21 06:54:12;;;;;;;3.78;3.15;;;19.60;99.90;;;;;;5034406;28;20186;-62
2023/07/21 06:56:40;;;;;;;4.40;3.50;;;19.60;99.90;;;;;;5033835;28;20284;-60
2023/07/21 06:59:05;;;;;;;4.20;3.47;;;19.60;99.90;;;;;;5034369;28;20202;-63
2023/07/21 07:01:31;;;;;;;13.52;3.92;;;19.60;99.90;;;;;;5032800;28;20240;-62
2023/07/21 07:03:59;;;;;;;3.72;3.42;;;19.60;99.90;;;;;;5034306;28;20228;-62
2023/07/21 07:06:30;;;;;;;4.15;3.78;;;19.60;99.90;;;;;;5033874;28;20193;-62
2023/07/21 07:08:55;;;;;;;5.35;4.43;;;19.60;99.90;;;;;;5029913;28;20268;-63
2023/07/21 07:11:21;;;;;;;4.97;4.50;;;19.60;99.90;;;;;;5029162;28;20185;-61
2023/07/21 07:13:47;;;;;;;5.30;4.43;;;19.60;99.90;;;;;;5033476;28;20182;-61
2023/07/21 07:16:15;;;;;;;5.57;5.03;;;19.60;99.90;;;;;;5033476;28;20220;-63
2023/07/21 07:18:43;;;;;;;5.30;4.80;;;19.70;99.90;;;;;;5030220;28;20273;-62
2023/07/21 07:21:12;;;;;;;6.15;5.55;;;19.70;99.90;;;;;;5033282;28;20194;-63
2023/07/21 07:23:38;;;;;;;5.55;4.68;;;19.80;99.90;;;;;;5034154;28;20177;-60
2023/07/21 07:26:05;;;;;;;6.80;5.40;;;19.80;99.90;;;;;;5033764;28;20174;-62
2023/07/21 07:28:31;;;;;;;5.72;4.85;;;19.80;99.90;;;;;;5033092;28;20454;-62
2023/07/21 07:31:06;;;;;;;5.32;4.82;;;19.90;99.90;;;;;;5033468;28;20173;-62
2023/07/21 07:33:32;;;;;;;6.03;5.28;;;19.90;99.90;;;;;;5033366;28;20259;-63
2023/07/21 07:35:59;;;;;;;5.72;5.10;;;20.00;99.90;;;;;;5036069;28;20220;-63
2023/07/21 07:38:27;;;;;;;5.40;4.47;;;20.10;99.90;;;;;;5031911;28;20174;-60
2023/07/21 07:40:53;;;;;;;5.75;4.80;;;20.20;99.90;;;;;;5025811;28;20212;-61
2023/07/21 07:43:21;;;;;;;6.45;5.10;;;20.20;99.90;;;;;;5036498;28;20178;-63
2023/07/21 07:45:47;;;;;;;5.15;4.65;;;20.30;99.90;;;;;;5036959;28;20213;-63
2023/07/21 07:48:14;;;;;;;5.90;5.15;;;20.40;99.90;;;;;;5029303;28;20183;-63
2023/07/21 07:50:44;;;;;;;5.13;4.63;;;20.50;99.90;;;;;;5036074;28;20182;-64
2023/07/21 07:53:12;;;;;;;6.15;5.00;;;20.60;99.90;;;;;;5037372;28;20178;-63
2023/07/21 07:55:44;;;;;;;6.43;4.68;;;20.60;99.90;;;;;;5037071;28;20258;-62
2023/07/21 07:58:14;;;;;;;5.05;4.50;;;20.70;99.90;;;;;;5037001;28;20182;-63
2023/07/21 08:00:44;;;;;;;5.15;4.60;;;20.80;99.90;;;;;;5036763;28;20206;-61
2023/07/21 08:03:10;;;;;;;5.53;4.97;;;20.80;99.90;;;;;;5036705;28;20232;-63
2023/07/21 08:05:39;;;;;;;5.25;4.70;;;20.90;99.90;;;;;;5027756;28;20210;-63
2023/07/21 08:08:07;;;;;;;5.30;4.80;;;21.00;99.90;;;;;;5028534;28;20285;-63
2023/07/21 08:10:33;;;;;;;5.68;4.55;;;21.00;99.90;;;;;;5048137;28;20185;-63
2023/07/21 08:13:04;;;;;;;5.30;4.78;;;21.10;99.90;;;;;;5035233;28;20205;-62
2023/07/21 08:15:32;;;;;;;4.35;3.95;;;21.20;99.90;;;;;;5046676;28;20193;-63
2023/07/21 08:17:58;;;;;;;5.22;4.72;;;21.20;99.90;;;;;;5031008;28;20178;-62
2023/07/21 08:20:26;;;;;;;6.10;5.50;;;21.30;99.90;;;;;;5038254;28;20225;-61
2023/07/21 08:22:54;;;;;;;5.88;4.95;;;21.40;99.90;;;;;;5036124;28;20240;-63
2023/07/21 08:25:20;;;;;;;5.55;4.68;;;21.40;99.90;;;;;;5036668;28;20192;-62
2023/07/21 08:27:46;;;;;;;5.13;4.25;;;21.50;99.90;;;;;;5036810;28;20174;-62
2023/07/21 08:30:12;;;;;;;8.20;4.90;;;21.60;99.90;;;;;;5029210;28;20264;-64
2023/07/21 08:32:40;;;;;;;5.40;4.63;;;21.60;99.90;;;;;;5036231;28;20198;-63
2023/07/21 08:35:07;;;;;;;5.63;5.13;;;21.70;99.90;;;;;;5032875;28;20215;-63
2023/07/21 08:37:33;;;;;;;5.78;4.45;;;21.80;99.90;;;;;;5029319;28;20426;-64
2023/07/21 08:39:59;;;;;;;5.15;4.65;;;21.90;99.90;;;;;;5036306;28;20505;-63
2023/07/21 08:42:25;;;;;;;5.22;4.57;;;21.90;99.90;;;;;;5036389;28;20185;-63
2023/07/21 08:44:53;;;;;;;5.20;4.70;;;22.00;99.90;;;;;;5036552;28;20189;-64
2023/07/21 08:47:22;;;;;;;6.00;5.25;;;22.10;99.90;;;;;;5036822;28;20174;-63
2023/07/21 08:49:51;;;;;;;6.10;5.50;;;22.20;99.90;;;;;;5036972;28;20536;-64
2023/07/21 08:52:18;;;;;;;5.95;5.45;;;22.30;99.90;;;;;;5037003;28;20193;-63
2023/07/21 08:54:49;;;;;;;6.85;5.28;;;22.40;99.90;;;;;;5037001;28;20212;-64
2023/07/21 08:57:17;;;;;;;6.65;6.05;;;22.50;99.90;;;;;;5036495;28;20178;-64
2023/07/21 08:59:42;;;;;;;6.50;5.30;;;22.60;99.90;;;;;;5033590;28;20277;-64
2023/07/21 09:02:10;;;;;;;8.15;6.53;;;22.70;99.90;;;;;;5019024;28;20198;-64
2023/07/21 09:04:41;;;;;;;6.60;5.90;;;22.80;99.90;;;;;;5029782;28;20205;-63
2023/07/21 09:07:07;;;;;;;6.63;6.03;;;22.80;99.90;;;;;;5028324;28;20266;-64
2023/07/21 09:09:35;;;;;;;5.85;5.25;;;22.80;99.90;;;;;;5036110;28;20178;-64
2023/07/21 09:12:03;;;;;;;6.30;5.70;;;22.90;99.90;;;;;;5034099;28;20204;-63
2023/07/21 09:14:47;;;;;;;5.05;4.55;;;22.90;99.90;;;;;;5033654;28;20232;-63
2023/07/21 09:17:18;;;;;;;4.53;4.05;;;23.00;99.90;;;;;;5029830;28;20192;-63
2023/07/21 09:19:45;;;;;;;4.65;4.25;;;23.00;99.90;;;;;;5039552;28;20201;-63
2023/07/21 09:22:11;;;;;;;5.45;4.70;;;23.00;99.90;;;;;;5035524;28;20174;-63
2023/07/21 09:24:49;;;;;;;4.45;3.92;;;23.10;99.90;;;;;;5043791;28;20225;-62
2023/07/21 09:27:28;;;;;;;5.05;4.20;;;23.20;99.90;;;;;;5033983;28;20265;-62
2023/07/21 09:30:07;;;;;;;4.32;3.92;;;23.20;99.90;;;;;;5025237;28;20186;-65
2023/07/21 09:32:42;;;;;;;6.43;4.15;;;23.20;99.90;;;;;;5032259;28;20182;-64
2023/07/21 09:35:09;;;;;;;4.05;3.58;;;23.30;99.90;;;;;;5032192;28;20209;-63
2023/07/21 09:37:35;;;;;;;3.95;3.53;;;23.30;99.90;;;;;;5039043;28;20194;-64
2023/07/21 09:40:09;;;;;;;4.18;3.67;;;23.30;99.90;;;;;;5035516;28;20185;-64
2023/07/21 09:42:35;;;;;;;3.28;2.97;;;23.30;99.90;;;;;;5035682;28;20185;-64
2023/07/21 09:45:01;;;;;;;3.35;3.05;;;23.30;99.90;;;;;;5035887;28;20170;-64
2023/07/21 09:47:30;;;;;;;3.25;2.85;;;23.40;99.90;;;;;;5034283;28;20242;-63
2023/07/21 09:49:58;;;;;;;4.20;3.78;;;23.50;99.90;;;;;;5051627;28;20217;-64
2023/07/21 09:52:28;;;;;;;4.53;3.67;;;23.60;99.90;;;;;;5035711;28;20201;-64
2023/07/21 09:55:10;;;;;;;3.40;3.10;;;23.60;99.90;;;;;;5034118;28;20261;-63
2023/07/21 09:57:44;;;;;;;4.22;2.88;;;23.60;99.90;;;;;;5034524;28;20216;-63
2023/07/21 10:00:14;;;;;;;3.50;3.20;;;23.60;99.90;;;;;;5034923;28;20179;-62
2023/07/21 10:02:47;;;;;;;3.72;3.28;;;23.70;99.90;;;;;;5023884;28;20204;-63
2023/07/21 10:05:13;;;;;;;4.05;3.47;;;23.70;99.90;;;;;;5034764;28;20181;-64
2023/07/21 10:07:46;;;;;;;4.30;3.60;;;23.80;99.90;;;;;;5034533;28;20173;-63
2023/07/21 10:10:15;;;;;;;4.70;4.20;;;23.80;99.90;;;;;;5033469;28;20220;-63
2023/07/21 10:12:52;;;;;;;4.28;3.83;;;23.90;99.90;;;;;;5023377;28;20219;-61
2023/07/21 10:15:30;;;;;;;5.38;4.88;;;23.90;99.90;;;;;;5033865;28;20193;-64
2023/07/21 10:18:14;;;;;;;3.92;3.53;;;24.00;99.90;;;;;;5034008;28;20188;-62
2023/07/21 10:20:43;;;;;;;3.10;2.80;;;24.10;99.90;;;;;;5034183;28;20213;-63
2023/07/21 10:23:13;;;;;;;3.17;2.35;;;24.20;99.90;;;;;;5028955;28;20198;-64
2023/07/21 10:25:51;;;;;;;2.13;1.92;;;24.20;99.90;;;;;;5028295;28;20194;-62
2023/07/21 10:28:23;;;;;;;2.70;2.35;;;24.20;99.90;;;;;;5034795;28;20166;-62
2023/07/21 10:30:49;;;;;;;2.95;2.42;;;24.20;99.90;;;;;;5033831;28;20249;-63
2023/07/21 10:33:17;;;;;;;2.88;2.38;;;24.10;99.90;;;;;;5030740;28;20198;-61
2023/07/21 10:35:43;;;;;;;2.70;2.40;;;24.10;99.90;;;;;;5031234;28;20314;-62
2023/07/21 10:38:15;;;;;;;6.30;2.28;;;24.10;99.90;;;;;;5034286;28;20181;-64
2023/07/21 10:40:41;;;;;;;2.15;1.95;;;24.00;99.90;;;;;;5034673;28;20170;-63
2023/07/21 10:43:10;;;;;;;2.40;2.20;;;24.00;99.90;;;;;;5034346;28;20237;-64
2023/07/21 10:45:38;;;;;;;3.33;2.50;;;23.90;99.90;;;;;;5034117;28;20264;-64
2023/07/21 10:48:15;;;;;;;2.55;2.13;;;23.80;99.90;;;;;;5034082;28;20206;-61
2023/07/21 10:50:51;;;;;;;2.42;2.22;;;23.70;99.90;;;;;;5032534;28;20244;-64
2023/07/21 10:53:19;;;;;;;3.10;2.13;;;23.70;99.90;;;;;;5034138;28;20182;-64
2023/07/21 10:55:45;;;;;;;2.78;1.95;;;23.60;99.90;;;;;;5034173;28;20220;-64
2023/07/21 10:58:13;;;;;;;2.90;2.00;;;23.60;99.90;;;;;;5034382;28;20260;-64
2023/07/21 11:00:46;;;;;;;2.40;1.75;;;23.70;99.90;;;;;;5034054;28;20184;-63
2023/07/21 11:03:12;;;;;;;4.32;1.80;;;23.70;99.90;;;;;;5034216;28;20405;-63
2023/07/21 11:05:38;;;;;;;2.28;1.70;;;23.70;99.90;;;;;;5037161;28;20269;-64
2023/07/21 11:08:04;;;;;;;2.03;1.60;;;23.70;99.90;;;;;;5030772;28;20198;-64
2023/07/21 11:10:33;;;;;;;1.92;1.52;;;23.70;99.90;;;;;;5037321;28;20181;-64
2023/07/21 11:13:02;;;;;;;1.90;1.40;;;23.60;99.90;;;;;;5024948;28;20179;-61
2023/07/21 11:15:28;;;;;;;1.70;1.45;;;23.60;99.90;;;;;;5022408;28;20229;-63
2023/07/21 11:18:05;;;;;;;1.77;1.55;;;23.60;99.90;;;;;;5030486;28;20174;-64
2023/07/21 11:20:33;;;;;;;2.53;1.60;;;23.60;99.90;;;;;;5032945;28;20207;-63
2023/07/21 11:23:03;;;;;;;2.53;1.50;;;23.60;99.90;;;;;;5033519;28;20154;-59
2023/07/21 11:25:31;;;;;;;1.58;1.40;;;23.50;99.90;;;;;;5030300;28;20170;-61
2023/07/21 11:28:05;;;;;;;2.35;1.33;;;23.50;99.90;;;;;;5030253;28;20290;-59
2023/07/21 11:30:34;;;;;;;1.92;1.40;;;23.50;99.90;;;;;;5017852;28;20231;-60
2023/07/21 11:33:12;;;;;;;3.92;1.83;;;23.40;99.90;;;;;;5032512;28;20261;-62
2023/07/21 11:35:45;;;;;;;2.40;1.67;;;23.40;99.90;;;;;;5033199;28;20205;-63
2023/07/21 11:38:14;;;;;;;2.03;1.80;;;23.30;99.90;;;;;;5031049;28;20202;-67
2023/07/21 11:40:40;;;;;;;1.88;1.48;;;23.10;99.90;;;;;;5017529;28;20269;-64
2023/07/21 11:43:07;;;;;;;3.13;2.00;;;23.00;99.90;;;;;;5032493;28;20170;-65
2023/07/21 11:45:36;;;;;;;2.25;1.70;;;22.90;99.90;;;;;;5033305;28;20196;-65
2023/07/21 11:48:12;;;;;;;3.70;2.05;;;22.80;99.90;;;;;;5032012;28;20255;-65
2023/07/21 11:50:41;;;;;;;2.88;1.98;;;22.70;99.90;;;;;;5033216;28;20194;-65
2023/07/21 11:53:07;;;;;;;3.17;2.60;;;22.50;99.90;;;;;;5032738;28;20197;-65
2023/07/21 11:55:34;;;;;;;3.63;2.50;;;22.30;99.90;;;;;;5031131;28;20212;-66
2023/07/21 11:57:59;;;;;;;3.03;2.72;;;22.00;99.90;;;;;;5025774;28;20200;-66
2023/07/21 12:00:28;;;;;;;4.22;2.63;;;21.70;99.90;;;;;;5032342;28;20274;-66
2023/07/21 12:02:58;;;;;;;3.78;2.88;;;21.30;99.90;;;;;;5027819;28;20277;-65
2023/07/21 12:05:26;;;;;;;4.45;2.45;;;21.00;99.90;;;;;;5026044;28;20182;-65
2023/07/21 12:07:54;;;;;;;3.03;2.50;;;20.60;99.90;;;;;;5039690;28;20170;-66
2023/07/21 12:10:22;;;;;;;4.40;2.83;;;20.40;99.90;;;;;;5033401;28;20178;-65
2023/07/21 12:12:47;;;;;;;4.70;2.72;;;20.10;99.90;;;;;;5029919;28;20244;-65
2023/07/21 12:15:16;;;;;;;3.33;2.65;;;20.00;99.90;;;;;;5032297;28;20178;-65
2023/07/21 12:17:42;;;;;;;3.65;2.97;;;19.90;99.90;;;;;;5031448;28;20348;-66
2023/07/21 12:20:14;;;;;;;4.30;2.80;;;19.70;99.90;;;;;;5032624;28;20201;-66
2023/07/21 12:22:41;;;;;;;3.65;2.67;;;19.60;99.90;;;;;;5034175;28;20189;-65
2023/07/21 12:25:10;;;;;;;3.90;3.15;;;19.50;99.90;;;;;;5036898;28;20202;-66
2023/07/21 12:27:38;;;;;;;4.13;3.60;;;19.50;99.90;;;;;;5037038;28;20265;-66
2023/07/21 12:30:08;;;;;;;5.85;2.85;;;19.40;99.90;;;;;;5053419;28;20182;-66
2023/07/21 12:32:36;;;;;;;5.35;2.33;;;19.30;99.90;;;;;;5029373;28;20226;-66
2023/07/21 12:35:03;;;;;;;2.78;1.90;;;19.10;99.90;;;;;;5036067;28;20180;-67
2023/07/21 12:37:29;;;;;;;2.28;1.80;;;18.90;99.90;;;;;;5036878;28;20170;-68
2023/07/21 12:39:58;;;;;;;2.63;1.85;;;18.60;99.90;;;;;;5036836;28;20181;-67
2023/07/21 12:42:27;;;;;;;2.83;1.77;;;18.50;99.90;;;;;;5036977;28;20170;-67
2023/07/21 12:44:54;;;;;;;2.28;1.63;;;18.30;99.90;;;;;;5036528;28;20198;-67
2023/07/21 12:47:19;;;;;;;1.92;1.67;;;18.20;99.90;;;;;;5033233;28;20265;-67
2023/07/21 12:49:47;;;;;;;1.42;1.33;;;18.10;99.90;;;;;;5036600;28;20288;-68
2023/07/21 12:52:13;;;;;;;2.55;1.33;;;18.10;99.90;;;;;;5036559;28;20210;-67